Time,TemperatureF,DewpointF,PressureIn,WindDirection,WindDirectionDegrees,WindSpeedMPH,WindSpeedGustMPH,Humidity,HourlyPrecipIn,Conditions,Clouds,dailyrainin,SoftwareType,DateUTC
2013-04-07 00:27:00,51.1,22.3,29.89,SSW,202,7.3,-999.0,32,-99.99,,,0.00,Acu-Link.com,2013-04-07 04:27:00,
2013-04-07 00:43:00,50.9,23.5,29.89,South,180,6.8,-999.0,34,-99.99,,,0.00,Acu-Link.com,2013-04-07 04:43:00,
2013-04-07 00:58:00,50.7,23.4,29.89,SSW,202,7.3,-999.0,34,-99.99,,,0.00,Acu-Link.com,2013-04-07 04:58:00,
2013-04-07 01:13:00,50.4,23.8,29.88,SSW,202,5.8,-999.0,35,-99.99,,,0.00,Acu-Link.com,2013-04-07 05:13:00,
2013-04-07 01:28:00,50.0,24.1,29.87,NW,315,4.2,-999.0,36,-99.99,,,0.00,Acu-Link.com,2013-04-07 05:28:00,
2013-04-07 01:44:00,49.8,24.6,29.87,South,180,5.8,-999.0,37,-99.99,,,0.00,Acu-Link.com,2013-04-07 05:44:00,
2013-04-07 01:59:00,49.6,25.0,29.86,West,270,5.8,-999.0,38,-99.99,,,0.00,Acu-Link.com,2013-04-07 05:59:00,
2013-04-07 02:14:00,49.5,25.0,29.85,SW,225,4.2,-999.0,38,-99.99,,,0.00,Acu-Link.com,2013-04-07 06:14:00,
2013-04-07 02:29:00,49.6,25.7,29.84,South,180,6.8,-999.0,39,-99.99,,,0.00,Acu-Link.com,2013-04-07 06:29:00,
2013-04-07 02:45:00,50.0,26.0,29.84,SSW,202,7.8,-999.0,39,-99.99,,,0.00,Acu-Link.com,2013-04-07 06:45:00,
2013-04-07 03:00:00,52.9,28.6,29.83,South,180,6.3,-999.0,39,-99.99,,,0.00,Acu-Link.com,2013-04-07 07:00:00,
2013-04-07 03:15:00,53.1,29.4,29.82,South,180,7.8,-999.0,40,-99.99,,,0.00,Acu-Link.com,2013-04-07 07:15:00,
2013-04-07 03:30:00,53.4,30.3,29.82,SSW,202,8.3,-999.0,41,-99.99,,,0.00,Acu-Link.com,2013-04-07 07:30:00,
2013-04-07 03:46:00,53.8,31.3,29.81,West,270,10.4,-999.0,42,-99.99,,,0.00,Acu-Link.com,2013-04-07 07:46:00,
2013-04-07 04:01:00,54.1,32.1,29.81,SSE,157,7.3,-999.0,43,-99.99,,,0.00,Acu-Link.com,2013-04-07 08:01:00,
2013-04-07 04:31:00,54.9,32.8,29.80,SSE,157,8.9,-999.0,43,-99.99,,,0.00,Acu-Link.com,2013-04-07 08:31:00,
2013-04-07 04:47:00,55.2,33.7,29.81,SSW,202,9.9,-999.0,44,-99.99,,,0.00,Acu-Link.com,2013-04-07 08:47:00,
2013-04-07 05:17:00,54.9,34.5,29.80,SSW,202,6.8,-999.0,46,-99.99,,,0.00,Acu-Link.com,2013-04-07 09:17:00,
2013-04-07 05:32:00,54.9,35.1,29.78,South,180,6.3,-999.0,47,-99.99,,,0.00,Acu-Link.com,2013-04-07 09:32:00,
2013-04-07 05:47:00,55.0,35.7,29.78,South,180,6.3,-999.0,48,-99.99,,,0.00,Acu-Link.com,2013-04-07 09:47:00,
2013-04-07 06:03:00,55.2,35.9,29.78,South,180,7.3,-999.0,48,-99.99,,,0.00,Acu-Link.com,2013-04-07 10:03:00,
2013-04-07 06:18:00,55.8,37.4,29.77,South,180,4.2,-999.0,50,-99.99,,,0.00,Acu-Link.com,2013-04-07 10:18:00,
2013-04-07 06:33:00,56.3,37.9,29.77,South,180,5.3,-999.0,50,-99.99,,,0.00,Acu-Link.com,2013-04-07 10:33:00,
2013-04-07 06:48:00,56.7,38.3,29.77,SW,225,10.9,-999.0,50,-99.99,,,0.00,Acu-Link.com,2013-04-07 10:48:00,
2013-04-07 07:03:00,57.0,39.1,29.77,SSW,202,9.4,-999.0,51,-99.99,,,0.00,Acu-Link.com,2013-04-07 11:03:00,
2013-04-07 07:18:00,57.2,39.2,29.76,SSW,202,9.4,-999.0,51,-99.99,,,0.00,Acu-Link.com,2013-04-07 11:18:00,
2013-04-07 07:33:00,57.6,39.6,29.76,South,180,7.3,-999.0,51,-99.99,,,0.00,Acu-Link.com,2013-04-07 11:33:00,
2013-04-07 07:49:00,57.4,39.4,29.76,South,180,7.3,-999.0,51,-99.99,,,0.00,Acu-Link.com,2013-04-07 11:49:00,
2013-04-07 08:19:00,57.4,39.9,29.75,SSE,157,8.9,-999.0,52,-99.99,,,0.00,Acu-Link.com,2013-04-07 12:19:00,
2013-04-07 08:34:00,57.9,40.4,29.76,SSW,202,5.8,-999.0,52,-99.99,,,0.00,Acu-Link.com,2013-04-07 12:34:00,
2013-04-07 08:50:00,58.5,40.9,29.76,South,180,9.4,-999.0,52,-99.99,,,0.00,Acu-Link.com,2013-04-07 12:50:00,
2013-04-07 09:35:00,60.3,42.6,29.74,SW,225,8.3,-999.0,52,-99.99,,,0.00,Acu-Link.com,2013-04-07 13:35:00,
2013-04-07 10:06:00,61.5,43.7,29.74,SSE,157,5.8,-999.0,52,-99.99,,,0.00,Acu-Link.com,2013-04-07 14:06:00,
2013-04-07 10:21:00,64.0,44.5,29.74,WSW,247,6.8,-999.0,49,-99.99,,,0.00,Acu-Link.com,2013-04-07 14:21:00,
2013-04-07 11:07:00,65.8,46.6,29.76,WSW,247,9.4,-999.0,50,-99.99,,,0.00,Acu-Link.com,2013-04-07 15:07:00,
2013-04-07 11:22:00,66.7,46.9,29.76,West,270,10.9,-999.0,49,-99.99,,,0.00,Acu-Link.com,2013-04-07 15:22:00,
2013-04-07 11:38:00,66.9,47.6,29.76,SSW,202,14.0,-999.0,50,-99.99,,,0.00,Acu-Link.com,2013-04-07 15:38:00,
2013-04-07 11:53:00,67.5,48.2,29.77,SW,225,9.4,-999.0,50,-99.99,,,0.00,Acu-Link.com,2013-04-07 15:53:00,
2013-04-07 12:08:00,68.9,48.9,29.76,SW,225,5.8,-999.0,49,-99.99,,,0.00,Acu-Link.com,2013-04-07 16:08:00,
2013-04-07 12:23:00,70.0,49.4,29.76,SW,225,4.2,-999.0,48,-99.99,,,0.00,Acu-Link.com,2013-04-07 16:23:00,
2013-04-07 13:24:00,64.0,49.8,29.78,NE,45,3.7,-999.0,60,-99.99,,,0.00,Acu-Link.com,2013-04-07 17:24:00,
2013-04-07 13:39:00,64.8,51.5,29.79,NNE,22,4.7,-999.0,62,-99.99,,,0.00,Acu-Link.com,2013-04-07 17:39:00,
2013-04-07 14:10:00,65.1,51.8,29.79,North,0,3.7,-999.0,62,-99.99,,,0.00,Acu-Link.com,2013-04-07 18:10:00,
2013-04-07 14:25:00,60.8,50.2,29.80,NNE,22,3.2,-999.0,68,-99.99,,,0.00,Acu-Link.com,2013-04-07 18:25:00,
2013-04-07 14:40:00,59.4,49.6,29.81,WNW,292,4.2,-999.0,70,-99.99,,,0.00,Acu-Link.com,2013-04-07 18:40:00,
2013-04-07 15:11:00,60.4,49.8,29.83,SW,225,2.2,-999.0,68,-99.99,,,0.00,Acu-Link.com,2013-04-07 19:11:00,
2013-04-07 15:26:00,62.1,50.6,29.83,North,0,4.2,-999.0,66,-99.99,,,0.00,Acu-Link.com,2013-04-07 19:26:00,
2013-04-07 15:41:00,62.1,50.2,29.83,SW,225,5.8,-999.0,65,-99.99,,,0.00,Acu-Link.com,2013-04-07 19:41:00,
2013-04-07 15:57:00,62.4,50.1,29.84,North,0,2.7,-999.0,64,-99.99,,,0.00,Acu-Link.com,2013-04-07 19:57:00,
2013-04-07 16:12:00,62.2,49.9,29.84,SSW,202,3.7,-999.0,64,-99.99,,,0.00,Acu-Link.com,2013-04-07 20:12:00,
2013-04-07 16:28:00,62.2,49.0,29.85,ESE,112,4.7,-999.0,62,-99.99,,,0.00,Acu-Link.com,2013-04-07 20:28:00,
2013-04-07 16:43:00,61.5,48.8,29.85,WNW,292,0.0,-999.0,63,-99.99,,,0.00,Acu-Link.com,2013-04-07 20:43:00,
2013-04-07 18:00:00,57.4,45.7,29.90,North,0,2.7,-999.0,65,-99.99,,,0.00,Acu-Link.com,2013-04-07 22:00:00,
2013-04-07 18:15:00,58.1,45.6,29.90,SSW,202,4.2,-999.0,63,-99.99,,,0.00,Acu-Link.com,2013-04-07 22:15:00,
2013-04-07 18:30:00,56.3,44.7,29.91,SSE,157,3.7,-999.0,65,-99.99,,,0.00,Acu-Link.com,2013-04-07 22:30:00,
2013-04-07 18:46:00,54.5,43.4,29.91,NE,45,0.0,-999.0,66,-99.99,,,0.00,Acu-Link.com,2013-04-07 22:46:00,
2013-04-07 19:01:00,53.2,42.9,29.93,West,270,2.2,-999.0,68,-99.99,,,0.00,Acu-Link.com,2013-04-07 23:01:00,
2013-04-07 19:16:00,51.8,42.0,29.93,North,0,1.1,-999.0,69,-99.99,,,0.00,Acu-Link.com,2013-04-07 23:16:00,
2013-04-07 19:31:00,50.2,41.5,29.94,NW,315,3.2,-999.0,72,-99.99,,,0.00,Acu-Link.com,2013-04-07 23:31:00,
2013-04-07 19:46:00,48.6,41.4,29.95,NNW,337,2.7,-999.0,76,-99.99,,,0.00,Acu-Link.com,2013-04-07 23:46:00,
2013-04-07 20:02:00,47.1,40.6,29.96,NW,315,0.0,-999.0,78,-99.99,,,0.00,Acu-Link.com,2013-04-08 00:02:00,
2013-04-07 20:17:00,46.0,40.2,29.96,East,90,0.0,-999.0,80,-99.99,,,0.00,Acu-Link.com,2013-04-08 00:17:00,
2013-04-07 20:32:00,45.1,39.9,29.97,SSW,202,0.0,-999.0,82,-99.99,,,0.00,Acu-Link.com,2013-04-08 00:32:00,
2013-04-07 20:48:00,43.9,39.4,29.97,NE,45,0.0,-999.0,84,-99.99,,,0.00,Acu-Link.com,2013-04-08 00:48:00,
2013-04-07 21:03:00,43.3,39.4,29.98,North,0,0.0,-999.0,86,-99.99,,,0.00,Acu-Link.com,2013-04-08 01:03:00,
2013-04-07 21:34:00,42.1,38.5,29.98,NE,45,0.0,-999.0,87,-99.99,,,0.00,Acu-Link.com,2013-04-08 01:34:00,
2013-04-07 21:49:00,41.2,38.2,29.99,ESE,112,0.0,-999.0,89,-99.99,,,0.00,Acu-Link.com,2013-04-08 01:49:00,
2013-04-07 22:04:00,40.3,37.6,30.00,NNW,337,0.0,-999.0,90,-99.99,,,0.00,Acu-Link.com,2013-04-08 02:04:00,
2013-04-07 22:19:00,39.6,36.9,29.99,SE,135,0.0,-999.0,90,-99.99,,,0.00,Acu-Link.com,2013-04-08 02:19:00,
2013-04-07 22:34:00,38.7,36.6,30.00,NW,315,0.0,-999.0,92,-99.99,,,0.00,Acu-Link.com,2013-04-08 02:34:00,
2013-04-07 22:50:00,37.9,36.6,30.00,NW,315,0.0,-999.0,95,-99.99,,,0.00,Acu-Link.com,2013-04-08 02:50:00,
2013-04-07 23:05:00,37.2,36.2,30.00,SE,135,0.0,-999.0,96,-99.99,,,0.00,Acu-Link.com,2013-04-08 03:05:00,
2013-04-07 23:20:00,36.5,35.7,30.00,SE,135,0.0,-999.0,97,-99.99,,,0.00,Acu-Link.com,2013-04-08 03:20:00,
2013-04-07 23:36:00,36.3,35.8,30.00,ESE,112,0.0,-999.0,98,-99.99,,,0.00,Acu-Link.com,2013-04-08 03:36:00,